Tiempo atmosférico en la estación meteorológica de Cuenca, Cuenca (945 m.)



Fecha
DESCASC
Temp. máxima en grados centígrados (hora)
DESCASC
Temp. mínima en grados centígrados (hora)
DESCASC
Temp. media en grados centígrados
DESCASC
Racha de viento máxima en m/sg (hora)
DESCASC
Velocidad máxima media en intervalos de 10 minutos(hora)
DESCASC
Precipitaciones diarias en mm
DESCASC
Precipitaciones de 00:00 a 06:00 en mm
DESCASC
Precipitaciones de 06:00 a 12:00 en mm
DESCASC
Precipitaciones de 12:00 a 18:00 en mm
DESCASC
Precipitaciones de 18:00 a 24:00 en mm
DESCASC
23-05-2018 26 (17:30) 11.8 (06:30) 18.9 9.72 (18:10) 4.44 (19:20) 0 0 0 0 0
22-05-2018 23.7 (18:30) 7.9 (07:50) 15.8 7.78 (13:40) 3.61 (15:00) 0 0 0 0 0
21-05-2018 20.6 (13:10) 9.3 (07:10) 15 6.39 (18:20) 3.06 (13:20) 4.4 0 0 0.4 4
20-05-2018 19.9 (15:50) 10.9 (00:00) 15.4 8.89 (16:20) 4.72 (16:20) 4.2 2 1.8 0.4 0
19-05-2018 21.1 (18:10) 8.9 (00:00) 15 8.33 (14:50) 4.44 (14:30) 1.8 0 0 1.8 0
18-05-2018 20.6 (14:50) 12 (00:00) 16.3 8.61 (17:50) 4.44 (18:00) 0.2 0 0.2 0 0
17-05-2018 22.1 (13:40) 9.5 (00:00) 15.8 7.78 (21:20) 3.61 (22:00) 0.2 0 0 0 0.2
16-05-2018 22.9 (17:30) 8.3 (00:00) 15.6 8.89 (13:10) 3.61 (23:30) 0 0 0 0 0
15-05-2018 22.8 (17:20) 4.6 (00:00) 13.7 6.39 (16:40) 3.61 (01:10) 0 0 0 0 0
14-05-2018 17.9 (17:40) 5.9 (00:00) 11.9 8.06 (14:40) 3.33 (10:40) 0 0 0 0 0
13-05-2018 16.4 (18:10) 3.7 (00:00) 10 11.39 (09:50) 4.72 (14:50) 0 0 0 0 0
12-05-2018 20 (13:40) 10 (00:00) 15 10.56 (22:20) 4.44 (18:40) 0 0 0 0 0
11-05-2018 23.7 (17:30) 10 (04:50) 16.9 7.5 (16:30) 3.33 (18:00) 0 0 0 0 0
10-05-2018 24.3 (16:50) 13.1 (00:00) 18.7 8.33 (21:20) 4.72 (21:20) 0 0 0 0 0
09-05-2018 24.6 (17:30) 9.5 (00:00) 17.1 8.89 (15:20) 3.89 (12:40) 0 0 0 0 0
08-05-2018 -- (--) -- (--) -- -- (--) -- (--) -- 0 0 -- 0
07-05-2018 22.7 (16:10) 7.7 (00:00) 15.2 9.17 (18:00) 3.33 (17:40) 0.4 0 0 0 0.4
06-05-2018 20.5 (15:50) 7.9 (00:00) 14.2 9.17 (17:50) 3.61 (17:50) 2 0 0.4 0.4 1.2
05-05-2018 21.7 (14:20) 9.3 (00:00) 15.5 7.5 (15:10) 3.33 (15:10) 2.8 0 0 1.4 1.4
04-05-2018 20.7 (17:10) 3.5 (00:00) 12.1 6.11 (09:10) 2.5 (13:50) 0 0 0 0 0
03-05-2018 18.9 (15:50) 5.8 (00:00) 12.3 8.61 (11:50) 3.33 (11:50) 0 0 0 0 0
02-05-2018 17.1 (16:30) 1.3 (00:00) 9.2 9.17 (16:20) 4.44 (16:10) 0 0 0 0 0
01-05-2018 15.3 (16:10) -0.3 (06:10) 7.5 7.5 (16:30) 3.06 (15:20) 0 0 0 0 0
30-04-2018 11.7 (16:50) 2.2 (00:00) 6.9 8.61 (18:10) 3.89 (17:40) 0.8 0 0 0 0.8
29-04-2018 10.9 (00:00) 4.3 (00:00) 7.6 13.89 (12:10) 6.11 (12:10) 6.2 0.6 3.2 1 1.4
28-04-2018 18.7 (17:00) 7.6 (00:00) 13.2 11.67 (17:20) 5.83 (17:20) 0 0 0 0 0

Gráficas

Temp. máximas Temp. mínimas Temp. medias Precipitaciones Rachas de viento máximas Velocidades máximas media en intervalos de 10 minutos

Datos horarios

Fecha y hora oficial Temperatura (ºC) Velocidad del viento (km/h) Dirección del viento Racha (km/h) Dirección de racha Precipitación (mm) Presión (hPa) Tendencia (hPa) Humedad (%)
2018-05-27 23:00:00 12.4 5 Sur 13 Sudoeste 0 906.7 -0.5 90
2018-05-27 22:00:00 12.7 4 Oeste 12 Oeste 1.6 906.2 -1.1 95
2018-05-27 21:00:00 12.9 3 Oeste 8 Sudoeste 8.4 907.1 0.6 94
2018-05-27 20:00:00 13.2 3 Sudeste 8 Noroeste 3.2 907.2 2.1 90
2018-05-27 19:00:00 13.2 4 Sudoeste 13 Sudeste 3 907.3 2.9 91
2018-05-27 18:00:00 14 6 Sudoeste 22 Sudoeste 3.6 906.5 1.5 87
2018-05-27 17:00:00 16.7 5 Norte 21 Nordeste 1 905.1 0 71
2018-05-27 16:00:00 20.3 7 Este 18 Este 0 904.4 -1.4 46
2018-05-27 15:00:00 21 3 Sudoeste 24 Noroeste 0 905 -1.3 54
2018-05-27 14:00:00 23.5 9 Noroeste 18 Noroeste 0 905.1 -1.5 48
2018-05-27 13:00:00 23.2 5 Noroeste 14 Sudoeste 0 905.8 -0.9 48
2018-05-27 12:00:00 21.3 8 Oeste 19 Noroeste 0 906.3 -0.2 59
2018-05-27 11:00:00 19.7 6 Oeste 10 Noroeste 0 906.6 0.3 66
2018-05-27 10:00:00 17.4 5 Oeste 10 Oeste 0 906.7 0.6 72
2018-05-27 09:00:00 15.2 5 Norte 11 Noroeste 0 906.5 0.6 78
2018-05-27 08:00:00 12.9 4 Este 13 Norte 0 906.3 0.4 86
2018-05-27 07:00:00 12.2 4 Norte 13 Norte 0 906.1 0 88
2018-05-27 06:00:00 13.4 2 Sudoeste 5 Sudoeste 0 905.9 -0.7 87
2018-05-27 05:00:00 14.4 2 Sudeste 6 Oeste 0 905.9 -1.1 85
2018-05-27 04:00:00 15.4 4 Sur 5 Sur 0 906.1 -1.2 81
2018-05-27 03:00:00 15.8 4 Sur 10 Sudeste 0 906.6 -0.8 80
2018-05-27 02:00:00 16 4 Sudeste 12 Sur 0 907 0.2 80
2018-05-27 01:00:00 16.4 6 Sudoeste 16 Sur 0 907.3 1.3 78
2018-05-27 00:00:00 17.1 7 Sudeste 14 Sur 0 907.4 2.1 73
2018-05-26 23:00:00 17.8 6 Sudeste 13 Sudeste 0 906.8 1.4 69
2018-05-26 22:00:00 18.7 3 Norte 8 Oeste 0 906 0.7 50
2018-05-26 21:00:00 19.9 6 Sudoeste 12 Sudoeste 0 905.3 -0.2 45
2018-05-26 20:00:00 20.6 6 Sudoeste 17 Sur 0 905.4 -0.2 43
2018-05-26 19:00:00 21.4 9 Sur 20 Sur 0 905.3 -0.3 45
2018-05-26 18:00:00 22.6 9 Sur 20 Sudoeste 0 905.5 -0.2 40
2018-05-26 17:00:00 22.2 9 Sudoeste 22 Oeste 0 905.6 -0.1 39
2018-05-26 16:00:00 22.3 9 Sudoeste 23 Oeste 0 905.6 0 39
2018-05-26 15:00:00 21.9 13 Sudoeste 24 Oeste 0 905.7 -0.3 40
2018-05-26 14:00:00 21.6 10 Sudoeste 21 Sudoeste 0 905.7 -0.5 39
2018-05-26 13:00:00 20.9 8 Sudoeste 22 Sudoeste 0 905.6 -0.7 46
2018-05-26 12:00:00 18.8 7 Oeste 14 Sudoeste 0 906 -0.1 53
2018-05-26 11:00:00 16.4 3 Oeste 10 Noroeste 0 906.2 0.3 69
2018-05-26 10:00:00 15.5 4 Norte 10 Norte 0 906.3 0.8 74
2018-05-26 09:00:00 14.5 6 Sur 11 Sur 0 906.1 1.1 84
2018-05-26 08:00:00 13.1 6 Sudeste 12 Este 0 905.9 0.8 92
2018-05-26 07:00:00 12.9 2 Sudoeste 11 Sudeste 0 905.5 0.2 88
2018-05-26 06:00:00 13.4 5 Sur 9 Sur 0 905 -0.8 90
2018-05-26 05:00:00 13.7 0 Calma 6 Oeste 0 905.1 -1.1 84
2018-05-26 04:00:00 14.2 2 Oeste 7 Sudeste 0 905.3 -0.7 81
2018-05-26 03:00:00 14.6 4 Sudeste 8 Sudeste 0 905.8 -0.2 80
2018-05-26 02:00:00 15 3 Sudoeste 10 Sur 0 906.2 0.5 72
2018-05-26 01:00:00 15.5 4 Sur 12 Sudeste 0 906 0.9 72
2018-05-26 00:00:00 16.2 5 Sur 9 Sur 0 906 1.1 68
2018-05-25 23:00:00 16.6 3 Sudoeste 9 Nordeste 0 905.7 1.3 69
2018-05-25 22:00:00 17.1 6 Nordeste 10 Nordeste 0 905.1 0.7 67
2018-05-25 21:00:00 17.7 4 Oeste 17 Noroeste 0 904.9 0.4 61
2018-05-25 20:00:00 19.1 8 Sudoeste 17 Sudoeste 0 904.4 -0.2 54
2018-05-25 19:00:00 19.1 7 Sudoeste 16 Oeste 0 904.4 -0.7 56
2018-05-25 18:00:00 19.6 7 Sudoeste 16 Sudoeste 0 904.5 -0.8 55
2018-05-25 17:00:00 20.2 6 Sudoeste 18 Sudoeste 0 904.6 -0.7 57
2018-05-25 16:00:00 18.3 9 Sudoeste 19 Oeste 0 905.1 -0.4 61
2018-05-25 15:00:00 17.5 8 Sudoeste 17 Sur 0 905.3 -0.2 59
2018-05-25 14:00:00 17.5 8 Sur 19 Sudeste 0 905.3 -0.4 56
2018-05-25 13:00:00 16.6 10 Sur 18 Sudeste 0 905.5 0 57
2018-05-25 12:00:00 16.4 7 Sur 16 Sudeste 0 905.5 -0.5 54
2018-05-25 11:00:00 15.3 7 Sur 24 Sur 0 905.7 -0.2 55
2018-05-25 10:00:00 15.1 6 Sudeste 17 Sudeste 0 905.5 0.2 55
2018-05-25 09:00:00 13.5 4 Sudeste 9 Sudeste 0 906 1.5 61
2018-05-25 08:00:00 13.4 2 Sudoeste 12 Norte 0 905.9 0.4 60
2018-05-25 07:00:00 13 5 Noroeste 15 Nordeste 0 905.3 -1 61
2018-05-25 06:00:00 14.1 7 Nordeste 18 Nordeste 0 904.5 -2.4 50
2018-05-25 05:00:00 13.7 2 Noroeste 10 Noroeste 0 905.5 -1.3 53
2018-05-25 04:00:00 14 0 Calma 8 Sur 0 906.3 -0.5 53
2018-05-25 03:00:00 14.7 4 Sudoeste 22 Sudeste 0 906.9 0.1 48
2018-05-25 02:00:00 15.1 9 Sudeste 20 Sur 0 906.8 0.2 44
2018-05-25 01:00:00 15.6 5 Sudeste 21 Sudeste 0 906.8 1.2 46
2018-05-25 00:00:00 16.6 12 Sur 30 Sudeste 0 906.8 1.4 43
2018-05-24 23:00:00 17.7 16 Sudeste 37 Sudeste 0 906.6 0.8 40
2018-05-24 22:00:00 18.8 15 Sudeste 35 Sur 0 905.6 0 34
2018-05-24 21:00:00 19.7 12 Sudeste 36 Sudeste 0 905.4 -0.2 38
2018-05-24 20:00:00 21.4 17 Sudeste 39 Sudeste 0 905.8 0.1 36
2018-05-24 19:00:00 23.7 19 Sudeste 38 Sudeste 0 905.6 -0.4 37
2018-05-24 18:00:00 24.1 17 Sudeste 36 Sur 0 905.6 -1.3 33
2018-05-24 17:00:00 25 16 Sudeste 36 Sur 0 905.7 -1.9 32
2018-05-24 16:00:00 25.7 18 Sudeste 32 Sur 0 906 -2.5 30
2018-05-24 15:00:00 24.5 12 Sudeste 30 Sur 0 906.9 -1.5 31
2018-05-24 14:00:00 21.4 9 Sudeste 29 Sur 0 907.6 -0.8 39
2018-05-24 13:00:00 20.5 13 Sudeste 33 Sur 0 908.5 -0.2 38
2018-05-24 12:00:00 21.9 17 Sudeste 35 Sur 0 908.4 -0.7 35
2018-05-24 11:00:00 21.4 13 Sudeste 36 Sudeste 0 908.4 -0.6 35
2018-05-24 10:00:00 19.9 11 Sudeste 24 Sudeste 0 908.7 0 38
2018-05-24 09:00:00 15.9 3 Norte 5 Norte 0 909.1 0.5 57
2018-05-24 08:00:00 13.3 3 Noroeste 8 Noroeste 0 909 -0.3 66
2018-05-24 07:00:00 13.6 4 Noroeste 8 Oeste 0 908.7 -1.3 66
2018-05-24 06:00:00 14.2 3 Sur 9 Sur 0 908.6 -1.6 67
2018-05-24 05:00:00 14.8 2 Noroeste 7 Norte 0 909.3 -0.6 69
2018-05-24 04:00:00 15.2 2 Sudeste 6 Sudeste 0 910 0.7 65
2018-05-24 03:00:00 15.5 0 Calma 6 Este 0 910.2 0.9 64
2018-05-24 02:00:00 16.4 3 Sudoeste 16 Sur 0 909.9 0.7 58
2018-05-24 01:00:00 17.6 7 Sudeste 22 Sudeste 0 909.3 0.3 53
2018-05-24 00:00:00 18.1 9 Sudeste 17 Sudeste 0 909.3 0.6 54
2018-05-23 23:00:00 18.8 5 Sudeste 8 Sur 0 909.2 0.8 51
2018-05-23 22:00:00 19.7 5 Sudeste 13 Sur 0 909 1.2 48
2018-05-23 21:00:00 21 6 Sur 23 Sudoeste 0 908.7 0.8 42
2018-05-23 20:00:00 22.4 14 Sudoeste 29 Sur 0 908.4 0.4 33
2018-05-23 19:00:00 24.2 13 Sur 35 Sur 0 907.8 -0.6 27
2018-05-23 18:00:00 25.3 12 Sur 29 Sur 0 907.9 -1 26
2018-05-23 17:00:00 25.5 13 Sur 27 Sur 0 908 -1.2 29
2018-05-23 16:00:00 25 13 Sur 29 Oeste 0 908.4 -1.2 30
2018-05-23 15:00:00 25.1 14 Sur 32 Sudoeste 0 908.9 -0.8 30
2018-05-23 14:00:00 24.4 10 Sur 24 Sudoeste 0 909.2 -0.5 34
2018-05-23 13:00:00 23.7 13 Sur 25 Sudeste 0 909.6 0 37
2018-05-23 12:00:00 21.7 9 Sudeste 16 Sudeste 0 909.7 0 46
2018-05-23 11:00:00 19.9 10 Sur 18 Sudeste 0 909.7 0.4 48
2018-05-23 10:00:00 18 5 Sur 9 Sur 0 909.6 0.8 62
2018-05-23 09:00:00 14.3 0 Calma 5 Norte 0 909.7 1 76
2018-05-23 08:00:00 12.1 0 Calma 5 Norte 0 909.3 0.6 84
2018-05-23 07:00:00 11.9 2 Este 5 Norte 0 908.8 -0.1 86
2018-05-23 06:00:00 12 0 Calma 5 Norte 0 908.7 -0.4 86
2018-05-23 05:00:00 12.6 0 Calma 8 Oeste 0 908.7 -0.8 84
2018-05-23 04:00:00 13.2 3 Oeste 7 Sudoeste 0 908.9 -0.6 81
2018-05-23 03:00:00 13.9 2 Noroeste 7 Sudeste 0 909.1 -0.4 78
2018-05-23 02:00:00 14.8 4 Sudeste 13 Sudeste 0 909.5 0.7 74
2018-05-23 01:00:00 15.2 4 Sur 9 Sudeste 0 909.5 1.4 72
2018-05-23 00:00:00 15.8 3 Sur 9 Sur 0 909.5 1.7 72
2018-05-22 23:00:00 16.7 3 Sudoeste 7 Sudeste 0 908.8 1.5 67
2018-05-22 22:00:00 17.3 3 Sur 5 Este 0 908.1 1.1 61
2018-05-22 21:00:00 18.3 4 Nordeste 27 Nordeste 0 907.8 1.4 56
2018-05-22 20:00:00 19.1 6 Nordeste 25 Nordeste 0 907.3 0.8 55
2018-05-22 19:00:00 21.3 10 Norte 26 Nordeste 0 907 0.3 48
2018-05-22 18:00:00 23.4 8 Sudoeste 20 Sudoeste 0 906.4 -0.6 40
2018-05-22 17:00:00 22.5 7 Oeste 20 Noroeste 0 906.5 -0.6 42
2018-05-22 16:00:00 22.4 9 Sudoeste 23 Sudoeste 0 906.7 -0.5 41
2018-05-22 15:00:00 21.3 13 Oeste 26 Oeste 0 907 -0.5 51
2018-05-22 14:00:00 21.5 6 Noroeste 28 Oeste 0 907.1 -0.2 51
2018-05-22 13:00:00 19.5 8 Oeste 19 Sudoeste 0 907.2 0 53
2018-05-22 12:00:00 16.8 3 Oeste 8 Oeste 0 907.5 0.5 64
2018-05-22 11:00:00 14.4 3 Noroeste 9 Noroeste 0 907.3 0.7 82
2018-05-22 10:00:00 13 4 Oeste 8 Oeste 0 907.2 1.2 83
2018-05-22 09:00:00 10.5 2 Sur 5 Sudeste 0 907 1.3 92
2018-05-22 08:00:00 8 2 Sudeste 6 Sudoeste 0 906.6 0.7 96
2018-05-22 07:00:00 8.2 3 Norte 6 Norte 0 906 0.1 95
2018-05-22 06:00:00 8.7 0 Calma 4 Sudeste 0 905.7 -0.4 95
2018-05-22 05:00:00 9.2 3 Sudeste 7 Norte 0 905.9 -0.5 94
2018-05-22 04:00:00 10 2 Este 7 Norte 0 905.9 -0.4 95
2018-05-22 03:00:00 10.4 2 Sudoeste 6 Nordeste 0 906.1 -0.5 95
2018-05-22 02:00:00 10.9 3 Norte 7 Norte 0 906.4 0.2 91
2018-05-22 01:00:00 11.7 3 Sudeste 6 Nordeste 0 906.3 0.6 92
2018-05-22 00:00:00 11.8 3 Sudeste 9 Sudeste 0 906.6 1.3 92
2018-05-21 23:00:00 12.5 4 Sudoeste 15 Nordeste 1 906.2 1.1 89
2018-05-21 22:00:00 12.6 7 Nordeste 15 Norte 0 905.7 0.4 83
2018-05-21 21:00:00 12.9 4 Sudoeste 13 Sudoeste 0.2 905.3 0.9 90
2018-05-21 20:00:00 13 4 Este 17 Norte 2.6 905.1 1.4 85
2018-05-21 19:00:00 15 6 Oeste 23 Sudoeste 0.2 905.3 1.2 68
2018-05-21 18:00:00 17.8 7 Sur 16 Sudoeste 0 904.4 0.3 51
2018-05-21 17:00:00 16.8 3 Sudeste 6 Nordeste 0.2 903.7 -0.6 62
2018-05-21 16:00:00 16.4 3 Sudoeste 17 Oeste 0 904.1 -0.5 56
2018-05-21 15:00:00 17.6 3 Sudoeste 13 Sur 0.2 904.1 -1 53
2018-05-21 14:00:00 18.2 7 Sudoeste 18 Noroeste 0 904.3 -1 51
2018-05-21 13:00:00 20.2 5 Sudoeste 13 Noroeste 0 904.6 -0.7 46
2018-05-21 12:00:00 18.6 3 Oeste 12 Sudoeste 0 905.1 -0.3 51
2018-05-21 11:00:00 17.1 3 Sudeste 10 Sudoeste 0 905.3 -0.1 61
2018-05-21 10:00:00 15.1 4 Sur 10 Sur 0 905.3 0.3 65
2018-05-21 09:00:00 12.9 0 Calma 12 Nordeste 0 905.4 0.3 76
2018-05-21 08:00:00 9.6 4 Noroeste 9 Noroeste 0 905.4 0.2 89
2018-05-21 07:00:00 9.4 2 Oeste 5 Sudeste 0 905 -0.1 89
2018-05-21 06:00:00 10 0 Calma 8 Noroeste 0 905.1 -0.3 87
2018-05-21 05:00:00 10.6 2 Oeste 15 Sur 0 905.2 -0.7 84
2018-05-21 04:00:00 11.3 6 Sudeste 19 Sudeste 0 905.1 -1.2 82
2018-05-21 03:00:00 11.6 8 Sudeste 20 Sudeste 0 905.4 -0.8 81
2018-05-21 02:00:00 12 8 Sudeste 19 Sudeste 0 905.9 -0.4 77
2018-05-21 01:00:00 12.6 6 Sudeste 21 Sudeste 0 906.3 0.8 77
2018-05-21 00:00:00 13.4 6 Sudeste 16 Sudeste 0 906.2 1.2 70
2018-05-20 23:00:00 14.3 4 Sudeste 12 Sudeste 0 906.3 1.8 64
2018-05-20 22:00:00 15.6 7 Sudeste 20 Nordeste 0 905.5 0.8 60
2018-05-20 21:00:00 16.4 5 Norte 11 Norte 0 905 0.3 59
2018-05-20 20:00:00 17.3 4 Nordeste 8 Nordeste 0 904.5 -0.7 54
2018-05-20 19:00:00 17.3 3 Nordeste 7 Nordeste 0 904.7 -1 57
2018-05-20 18:00:00 16.8 3 Noroeste 8 Nordeste 0 904.7 -1.5 56
2018-05-20 17:00:00 16 3 Norte 32 Sur 0.4 905.2 -1.6 58
2018-05-20 16:00:00 18.4 14 Sur 30 Sur 0 905.7 -1.8 46
2018-05-20 15:00:00 19.1 7 Sur 19 Sur 0 906.2 -1.6 47
2018-05-20 14:00:00 18.3 8 Sur 22 Sudeste 0 906.8 -1.1 46
2018-05-20 13:00:00 16.6 7 Sudoeste 13 Sudoeste 0 907.5 -0.3 64
2018-05-20 12:00:00 14.7 3 Sur 9 Sur 0 907.8 -0.2 66
2018-05-20 11:00:00 13.8 4 Sudoeste 8 Este 0 907.9 0 75
2018-05-20 10:00:00 13.2 4 Sudeste 8 Sudeste 0 907.8 -0.3 82
2018-05-20 09:00:00 11.8 3 Sudoeste 6 Oeste 0.2 908 -0.3 89
2018-05-20 08:00:00 11 2 Oeste 8 Nordeste 0.2 907.9 -0.3 93
2018-05-20 07:00:00 11 4 Norte 15 Oeste 1.4 908.1 -0.2 92
2018-05-20 06:00:00 11.4 5 Noroeste 12 Noroeste 0.8 908.3 -0.3 93
2018-05-20 05:00:00 11.6 3 Sudeste 14 Sudeste 1 908.2 -0.5 89
2018-05-20 04:00:00 12.2 8 Sudeste 17 Sudeste 0 908.3 -0.5 83
2018-05-20 03:00:00 13 6 Sudeste 12 Sudeste 0 908.6 -0.1 79
2018-05-20 02:00:00 13.3 5 Sudeste 8 Sur 0.2 908.7 0.1 79
2018-05-20 01:00:00 14.2 5 Oeste 8 Oeste 0 908.8 0.6 71
2018-05-20 00:00:00 14.7 4 Sudoeste 11 Sudeste 0 908.7 0.7 65
2018-05-19 23:00:00 14.6 8 Sudeste 15 Sudeste 0 908.6 1.1 67
2018-05-19 22:00:00 15.2 7 Sudeste 19 Sur 0 908.2 0.8 65
2018-05-19 21:00:00 16.7 4 Sudeste 17 Sudoeste 0 908 0.5 56
2018-05-19 20:00:00 18.5 3 Este 18 Nordeste 0 907.5 -0.3 44
2018-05-19 19:00:00 19.2 6 Nordeste 20 Sudeste 0 907.4 -1 45
2018-05-19 18:00:00 20.8 5 Sudeste 18 Sudeste 0 907.5 -1.7 43
2018-05-19 17:00:00 18.2 3 Norte 10 Nordeste 0 907.8 -1 54
2018-05-19 16:00:00 15.2 5 Nordeste 19 Nordeste 1.6 908.4 -0.8 74
2018-05-19 15:00:00 14.9 10 Nordeste 30 Nordeste 0.2 909.2 -0.3 66
2018-05-19 14:00:00 20.1 6 Sudoeste 17 Sudeste 0 908.8 -0.8 41
2018-05-19 13:00:00 18.2 5 Sudoeste 14 Sudeste 0 909.2 -0.6 50
2018-05-19 12:00:00 17.9 5 Sudoeste 11 Sudoeste 0 909.5 0 51
2018-05-19 11:00:00 17 6 Norte 12 Norte 0 909.6 0.2 56
2018-05-19 10:00:00 12.6 3 Norte 10 Norte 0 909.8 0.7 76
2018-05-19 09:00:00 11.5 3 Noroeste 13 Norte 0 909.5 0.7 76
2018-05-19 08:00:00 9 2 Norte 5 Nordeste 0 909.4 0.5 86
2018-05-19 07:00:00 9 3 Norte 6 Norte 0 909.1 0.1 86
2018-05-19 06:00:00 9.1 0 Calma 11 Norte 0 908.8 -0.4 88
2018-05-19 05:00:00 9.7 0 Calma 4 Sudoeste 0 908.9 -0.5 84
2018-05-19 04:00:00 10.1 3 Norte 6 Norte 0 909 -0.4 84
2018-05-19 03:00:00 11.1 3 Norte 6 Norte 0 909.2 -0.4 81
2018-05-19 02:00:00 12.3 2 Oeste 6 Sur 0 909.4 0.1 79
2018-05-19 01:00:00 13.6 0 Calma 5 Sudeste 0 909.4 0.4 73
2018-05-19 00:00:00 13.7 4 Sudeste 9 Sur 0 909.6 0.8 76
2018-05-18 23:00:00 14.2 2 Nordeste 5 Sudoeste 0 909.3 1.1 72
2018-05-18 22:00:00 14.5 0 Calma 6 Sudeste 0 909 1 66
2018-05-18 21:00:00 15 4 Oeste 10 Oeste 0 908.8 0.3 73
2018-05-18 20:00:00 15.5 3 Sudeste 20 Sur 0 908.2 0.2 67
2018-05-18 19:00:00 15.5 4 Sudeste 25 Sudeste 0 908 0.1 59
2018-05-18 18:00:00 15.1 16 Sudeste 31 Sudeste 0 908.5 0.4 67
2018-05-18 17:00:00 17.2 4 Este 22 Sur 0 908 -0.8 53
2018-05-18 16:00:00 19.1 6 Noroeste 19 Noroeste 0 907.9 -1.2 42
2018-05-18 15:00:00 20.3 4 Sudeste 13 Oeste 0 908.1 -1.1 37
2018-05-18 14:00:00 18.5 4 Nordeste 18 Sur 0 908.8 -0.4 47
2018-05-18 13:00:00 17.8 7 Sudeste 14 Sudeste 0 909.1 0 49
2018-05-18 12:00:00 16.1 2 Oeste 8 Oeste 0 909.2 0.2 62
2018-05-18 11:00:00 14.4 4 Sur 14 Sur 0 909.2 0.7 61
2018-05-18 10:00:00 12.7 4 Sudeste 10 Sudeste 0.2 909.1 1.1 70
2018-05-18 09:00:00 12.1 3 Oeste 10 Oeste 0 909 1.2 71
2018-05-18 08:00:00 12 4 Este 12 Sudeste 0 908.5 0.6 68
2018-05-18 07:00:00 12 2 Sudeste 12 Sur 0 908 0 67
2018-05-18 06:00:00 12.3 6 Sudeste 11 Sur 0 907.8 -0.5 64
2018-05-18 05:00:00 12.7 4 Sudeste 8 Sudeste 0 907.9 -0.8 65
2018-05-18 04:00:00 13.1 5 Sudeste 15 Sudeste 0 908 -0.7 61
2018-05-18 03:00:00 13.4 9 Sudeste 16 Sur 0 908.3 -0.4 58
2018-05-18 02:00:00 13.8 7 Sur 21 Sudeste 0 908.7 0.2 56
2018-05-18 01:00:00 14.4 12 Sudeste 24 Sudeste 0 908.7 1 54
2018-05-18 00:00:00 14.5 8 Sudeste 23 Sudeste 0 908.7 1.9 55
2018-05-17 23:00:00 15.3 11 Sudeste 26 Sudeste 0 908.5 2.3 55
2018-05-17 22:00:00 15.3 13 Sudeste 28 Sur 0.2 907.7 1.6 62
2018-05-17 21:00:00 18.1 7 Sudeste 18 Este 0 906.8 0.6 42
2018-05-17 20:00:00 19.8 4 Sudeste 13 Sudoeste 0 906.2 -0.1 33
2018-05-17 19:00:00 20.3 5 Sur 15 Sur 0 906.1 -0.4 33
2018-05-17 18:00:00 20.6 9 Sur 20 Sur 0 906.2 -0.7 35
2018-05-17 17:00:00 20.6 11 Sur 22 Sudeste 0 906.3 -0.8 33
2018-05-17 16:00:00 21.3 6 Sudoeste 11 Sur 0 906.5 -1 30
2018-05-17 15:00:00 20.8 6 Sur 16 Oeste 0 906.9 -0.9 30
2018-05-17 14:00:00 21 7 Sur 22 Sur 0 907.1 -0.7 29
2018-05-17 13:00:00 21 7 Sur 15 Sudeste 0 907.5 -0.7 32
2018-05-17 12:00:00 19.8 6 Sudoeste 19 Sudeste 0 907.8 -0.3 35
2018-05-17 11:00:00 18.1 9 Sur 19 Sudeste 0 907.8 -0.5 38
2018-05-17 10:00:00 16.1 4 Oeste 7 Oeste 0 908.2 0.1 46
2018-05-17 09:00:00 13 2 Sur 6 Oeste 0 908.1 0.1 55
2018-05-17 08:00:00 9.7 0 Calma 6 Oeste 0 908.3 0.2 64
2018-05-17 07:00:00 9.9 0 Calma 6 Sur 0 908.1 0 62
2018-05-17 06:00:00 10.6 4 Sudeste 8 Sudeste 0 908 -0.3 59
2018-05-17 05:00:00 11.2 5 Sudeste 10 Sudeste 0 908.1 -0.3 55
2018-05-17 04:00:00 12.3 4 Sudeste 13 Sur 0 908.1 -0.3 51
2018-05-17 03:00:00 13.3 4 Sur 13 Sur 0 908.3 0.1 47
2018-05-17 02:00:00 13.8 3 Sudeste 15 Sudeste 0 908.4 0.5 44
2018-05-17 01:00:00 14.7 6 Sudeste 18 Sudeste 0 908.4 1.1 44
2018-05-17 00:00:00 15.6 11 Sur 24 Sudeste 0 908.2 1.2 42
2018-05-16 23:00:00 16.4 10 Sudeste 25 Sudeste 0 907.9 1.3 40
2018-05-16 22:00:00 17.4 9 Sudeste 21 Sudeste 0 907.3 1 38
2018-05-16 21:00:00 18.8 8 Sudeste 14 Sur 0 907 0.5 36
2018-05-16 20:00:00 19.8 7 Sudeste 20 Sur 0 906.6 0 34
2018-05-16 19:00:00 21.2 9 Sudeste 19 Sur 0 906.3 -0.9 32
2018-05-16 18:00:00 21.3 7 Sur 27 Sudeste 0 906.5 -1.2 32
2018-05-16 17:00:00 21.9 9 Sur 18 Sur 0 906.6 -1.3 32
2018-05-16 16:00:00 20.9 4 Sur 12 Norte 0 907.2 -1 33
2018-05-16 15:00:00 19.3 6 Norte 21 Sur 0 907.7 -0.8 40
2018-05-16 14:00:00 20.4 9 Sudeste 32 Sudoeste 0 907.9 -0.7 35
2018-05-16 13:00:00 19.9 11 Sur 25 Sudoeste 0 908.2 -0.6 36
2018-05-16 12:00:00 19.8 8 Sur 21 Sudeste 0 908.5 -0.2 39
2018-05-16 11:00:00 17.5 3 Sudoeste 10 Sudoeste 0 908.6 -0.1 47
2018-05-16 10:00:00 15 2 Norte 5 Noroeste 0 908.8 0.5 53
2018-05-16 09:00:00 11.7 2 Sudoeste 4 Sur 0 908.7 0.5 65
2018-05-16 08:00:00 8.4 0 Calma 4 Oeste 0 908.7 0.3 75
2018-05-16 07:00:00 8.7 0 Calma 5 Norte 0 908.3 -0.3 74
2018-05-16 06:00:00 9.8 3 Oeste 14 Nordeste 0 908.2 -0.6 69
2018-05-16 05:00:00 10.7 10 Nordeste 15 Nordeste 0 908.4 -0.8 66
2018-05-16 04:00:00 10.6 5 Norte 9 Nordeste 0 908.6 -0.4 66
2018-05-16 03:00:00 11.6 4 Norte 9 Noroeste 0 908.8 -0.2 62
2018-05-16 02:00:00 12.7 4 Sur 7 Sur 0 909.2 0.5 58
2018-05-16 01:00:00 14 3 Nordeste 8 Sur 0 909 1.4 54
2018-05-16 00:00:00 15.3 3 Oeste 15 Este 0 909 2.1 49
2018-05-15 23:00:00 16.2 4 Norte 17 Nordeste 0 908.7 2.1 46
2018-05-15 22:00:00 18.2 8 Nordeste 19 Este 0 907.6 1.1 40
2018-05-15 21:00:00 19.9 7 Norte 23 Noroeste 0 906.9 0.2 35
2018-05-15 20:00:00 20.8 6 Noroeste 16 Nordeste 0 906.6 -0.6 33
2018-05-15 19:00:00 21.9 5 Sudoeste 16 Noroeste 0 906.5 -1.1 31
2018-05-15 18:00:00 20.6 5 Oeste 17 Noroeste 0 906.7 -1.3 34
2018-05-15 17:00:00 21.7 9 Oeste 23 Oeste 0 907.2 -1.3 32
2018-05-15 16:00:00 22 8 Oeste 19 Oeste 0 907.6 -1.3 31
2018-05-15 15:00:00 20.5 7 Sur 20 Sudoeste 0 908 -1.1 34
2018-05-15 14:00:00 19.9 8 Sudoeste 16 Oeste 0 908.5 -1 34
2018-05-15 13:00:00 18.7 10 Sudoeste 18 Sudoeste 0 908.9 -0.9 38
2018-05-15 12:00:00 16.5 5 Norte 14 Nordeste 0 909.1 -0.7 40
2018-05-15 11:00:00 13.7 5 Norte 15 Noroeste 0 909.5 -0.5 47
2018-05-15 10:00:00 11.4 4 Noroeste 16 Norte 0 909.8 -0.1 53
2018-05-15 09:00:00 8.1 4 Norte 14 Noroeste 0 909.8 0 60
2018-05-15 08:00:00 4.7 5 Nordeste 12 Norte 0 910 -0.1 73
2018-05-15 07:00:00 5 3 Noroeste 10 Norte 0 909.9 -0.3 73
2018-05-15 06:00:00 5.4 3 Noroeste 9 Noroeste 0 909.8 -0.7 71
2018-05-15 05:00:00 6.2 0 Calma 9 Norte 0 910.1 -0.5 66
2018-05-15 04:00:00 7.1 3 Noroeste 10 Norte 0 910.2 0 63
2018-05-15 03:00:00 7.9 4 Norte 9 Norte 0 910.5 0.4 59
2018-05-15 02:00:00 9 4 Norte 23 Nordeste 0 910.6 0.6 53
2018-05-15 01:00:00 10.3 9 Norte 21 Nordeste 0 910.2 1 47
2018-05-15 00:00:00 11.6 8 Nordeste 18 Nordeste 0 910.1 1.2 40
2018-05-14 23:00:00 12.7 5 Nordeste 17 Norte 0 910 1.2 38
2018-05-14 22:00:00 13.7 5 Norte 15 Norte 0 909.2 0.5 35
2018-05-14 21:00:00 14.7 4 Noroeste 20 Norte 0 908.9 0.2 38
2018-05-14 20:00:00 16 6 Norte 22 Norte 0 908.8 -0.2 37
2018-05-14 19:00:00 16.9 7 Norte 24 Noroeste 0 908.7 -0.7 32
2018-05-14 18:00:00 17.2 9 Norte 23 Noroeste 0 908.7 -0.5 30
2018-05-14 17:00:00 17.6 10 Norte 24 Noroeste 0 909 -0.2 32
2018-05-14 16:00:00 16.1 6 Norte 24 Nordeste 0 909.4 -0.1 38
2018-05-14 15:00:00 16 8 Noroeste 29 Noroeste 0 909.2 -0.4 36
2018-05-14 14:00:00 15.8 9 Noroeste 23 Norte 0 909.2 -0.4 37
2018-05-14 13:00:00 14.9 6 Noroeste 28 Noroeste 0 909.5 -0.2 43
2018-05-14 12:00:00 14.8 8 Noroeste 23 Nordeste 0 909.6 0 42
2018-05-14 11:00:00 13.1 7 Norte 26 Norte 0 909.6 -0.4 48
2018-05-14 10:00:00 10.3 7 Norte 26 Norte 0 909.7 -0.4 57
2018-05-14 09:00:00 8.7 10 Norte 25 Norte 0 909.6 -0.4 63
2018-05-14 08:00:00 7.4 5 Norte 16 Norte 0 910 -0.1 67
2018-05-14 07:00:00 6.5 5 Norte 10 Norte 0 910.1 0.1 67
2018-05-14 06:00:00 6 4 Norte 9 Norte 0 910 -0.6 67
2018-05-14 05:00:00 6.1 3 Norte 8 Norte 0 910.1 -0.6 63
2018-05-14 04:00:00 6.4 4 Norte 12 Norte 0 910 -1 60
2018-05-14 03:00:00 6.7 6 Norte 10 Norte 0 910.6 -0.7 58
2018-05-14 02:00:00 7.2 4 Norte 12 Norte 0 910.7 -0.6 54
2018-05-14 01:00:00 7.9 6 Norte 11 Norte 0 911 0.2 51
2018-05-11 20:00:00 21.7 10 Sudoeste 22 Sudoeste 0 908.3 -0.4 33
2018-05-11 19:00:00 23.2 11 Oeste 22 Sudoeste 0 908.2 -1.2 33
2018-05-11 18:00:00 23.1 12 Sudoeste 22 Sudoeste 0 908.5 -1.3 36
2018-05-11 17:00:00 23.2 10 Sudoeste 27 Oeste 0 908.7 -1.9 37
2018-05-11 16:00:00 22.3 8 Sudoeste 24 Sudoeste 0 909.4 -1.4 45
2018-05-11 15:00:00 21 5 Sur 14 Sudeste 0 909.8 -1.1 51
2018-05-11 14:00:00 19.1 9 Sudoeste 18 Sudoeste 0 910.6 -0.1 62
2018-05-11 13:00:00 17.6 6 Sur 17 Sur 0 910.8 0.3 68
2018-05-11 12:00:00 16.5 8 Sur 17 Sudeste 0 910.9 0.7 71
2018-05-11 11:00:00 15.1 10 Sudeste 18 Sudeste 0 910.7 0.9 73
2018-05-11 10:00:00 14 10 Sur 22 Sudeste 0 910.5 0.9 75
2018-05-11 09:00:00 13.4 9 Sudeste 17 Sudeste 0 910.2 0.7 74
2018-05-11 08:00:00 12.2 8 Sur 14 Sur 0 909.8 0.6 79
2018-05-11 07:00:00 11.5 5 Sudeste 10 Sur 0 909.6 0.3 83
2018-05-11 06:00:00 10.5 2 Oeste 6 Noroeste 0 909.5 -0.2 83
2018-05-11 05:00:00 10 3 Oeste 6 Oeste 0 909.2 -0.6 85
2018-05-11 04:00:00 10.3 3 Noroeste 6 Oeste 0 909.3 -0.7 83
2018-05-11 03:00:00 11.2 2 Noroeste 6 Noroeste 0 909.7 -0.2 81
2018-05-11 02:00:00 12.1 3 Sur 8 Sudeste 0 909.8 0.1 78
2018-05-11 01:00:00 12.8 4 Sudeste 14 Sudeste 0 910 0.8 74
2018-05-11 00:00:00 13.1 7 Sur 19 Sudeste 0 909.9 1.9 71
2018-05-10 23:00:00 13.6 8 Sudeste 24 Sur 0 909.7 2.4 70
2018-05-10 22:00:00 14.6 11 Sudeste 30 Sudeste 0 909.2 2.3 67
2018-05-10 21:00:00 18.4 6 Sudeste 24 Sur 0 908 1.3 56
2018-05-10 20:00:00 20.2 10 Sudeste 19 Sudeste 0 907.3 0.7 45
2018-05-10 19:00:00 21.3 11 Sur 21 Sur 0 906.9 0.2 43
2018-05-10 18:00:00 21.3 12 Sudeste 24 Sudeste 0 906.7 -0.1 43
2018-05-10 17:00:00 23.8 9 Noroeste 28 Noroeste 0 906.6 -0.3 33
2018-05-10 16:00:00 23.3 10 Noroeste 27 Oeste 0 906.7 -0.3 36
2018-05-10 15:00:00 22.8 10 Noroeste 23 Noroeste 0 906.8 -0.4 38
2018-05-10 14:00:00 21.3 6 Oeste 14 Noroeste 0 906.9 -0.2 45
2018-05-10 13:00:00 20.2 6 Sudoeste 15 Sudoeste 0 907 0.2 47
2018-05-10 12:00:00 19.2 4 Sur 10 Sudoeste 0 907.2 0.9 55
2018-05-10 11:00:00 17 3 Sur 12 Noroeste 0 907.1 1.1 60
2018-05-10 10:00:00 15.4 5 Nordeste 9 Nordeste 0 906.8 1.6 65
2018-05-10 09:00:00 13.6 3 Sudeste 7 Sudoeste 0 906.3 1.5 78
2018-05-10 08:00:00 13.2 2 Este 9 Oeste 0 906 1.9 77
2018-05-10 07:00:00 13.4 6 Noroeste 16 Norte 0 905.2 1 74
2018-05-10 06:00:00 13.3 6 Norte 14 Norte 0 904.8 0.6 76
2018-05-10 05:00:00 14.2 2 Norte 7 Norte 0 904.1 0.2 73
2018-05-10 04:00:00 15 2 Noroeste 8 Sur 0 904.2 0.5 69
2018-05-10 03:00:00 15.7 4 Sur 14 Nordeste 0 904.2 0.4 65
2018-05-10 02:00:00 16.4 7 Norte 17 Nordeste 0 903.9 0.2 59
2018-05-10 01:00:00 17.4 3 Norte 17 Noroeste 0 903.7 0.6 63
2018-05-10 00:00:00 18.1 5 Noroeste 16 Noroeste 0 903.8 1.2 62
2018-05-09 23:00:00 18.5 3 Noroeste 6 Nordeste 0 903.7 1.5 54
2018-05-09 22:00:00 19.4 0 Calma 9 Norte 0 903.1 1.3 49
2018-05-09 21:00:00 20.9 3 Norte 19 Noroeste 0 902.6 0.5 44
2018-05-09 20:00:00 22.4 10 Noroeste 24 Noroeste 0 902.2 0 38
2018-05-09 19:00:00 23.9 12 Noroeste 28 Noroeste 0 901.8 -0.8 33
2018-05-09 18:00:00 24.2 13 Noroeste 31 Noroeste 0 902.1 -0.9 35
2018-05-09 17:00:00 24.1 14 Noroeste 32 Oeste 0 902.2 -1.1 34
2018-05-09 16:00:00 24.1 12 Noroeste 32 Noroeste 0 902.6 -1 34
2018-05-09 15:00:00 23.5 8 Noroeste 30 Noroeste 0 903 -0.9 36
2018-05-09 14:00:00 22.7 9 Noroeste 27 Noroeste 0 903.3 -0.9 38
2018-05-09 13:00:00 21.2 12 Noroeste 24 Oeste 0 903.6 -0.5 41
2018-05-09 12:00:00 19.8 6 Noroeste 17 Noroeste 0 903.9 -0.3 54
2018-05-09 11:00:00 18.4 4 Norte 12 Nordeste 0 904.2 0 55
2018-05-09 10:00:00 15.2 4 Norte 12 Norte 0 904.1 0.2 72
2018-05-09 09:00:00 12.5 3 Norte 8 Norte 0 904.2 0.4 80
2018-05-09 08:00:00 9.8 0 Calma 8 Sudeste 0 904.2 0 90
2018-05-09 07:00:00 10 3 Norte 23 Nordeste 0 903.9 -0.6 88
2018-05-09 06:00:00 9.6 0 Calma 5 Norte 0 903.8 -0.6 92
2018-05-09 05:00:00 10.1 4 Norte 8 Norte 0 904.2 -0.9 89
2018-05-09 04:00:00 10.7 2 Norte 5 Norte 0 904.5 -0.8 88
2018-05-09 03:00:00 11.6 2 Sur 8 Este 0 904.4 -0.8 87
2018-05-09 02:00:00 12.5 0 Calma 6 Sur 0 905.1 0.3 86
2018-05-09 01:00:00 12.8 3 Norte 11 Norte 0 905.3 0.8 84
2018-05-09 00:00:00 13.1 4 Norte 16 Norte 0 905.2 1.1 82
2018-05-08 23:00:00 13.9 0 Calma 16 Nordeste 0 904.8 0.6 83
2018-05-08 22:00:00 14.1 7 Norte 18 Nordeste 0 904.5 0.1 82
2018-05-08 21:00:00 15.2 2 Norte 8 Norte 0 904.1 -0.1 78
2018-05-08 20:00:00 16.1 3 Norte 8 Norte 0 904.2 -0.6 74
2018-05-08 19:00:00 16 4 Noroeste 15 Noroeste 0 904.4 0.1 74
2018-05-08 18:00:00 15.9 2 Oeste 10 Sudoeste 0.2 904.2 -0.6 76
2018-05-08 17:00:00 15.5 3 Este 18 Sudeste 0.2 904.8 -- 76
2018-05-08 16:00:00 15.4 5 Sudeste 41 Nordeste 3.8 904.3 -- 76
2018-05-08 15:00:00 20.9 15 Norte 44 Nordeste 0.6 904.8 -1.1 43
2018-05-08 14:00:00 -- -- -- -- -- -- -- -- --
2018-05-08 13:00:00 -- -- -- -- -- -- -- -- --
2018-05-08 12:00:00 18.5 6 Noroeste 19 Noroeste 0 905.9 -0.3 60
2018-05-08 11:00:00 17.9 6 Oeste 13 Noroeste 0 906 0 60
2018-05-08 10:00:00 15.1 2 Oeste 5 Sudoeste 0 906.2 0.4 75
2018-05-08 09:00:00 11.7 3 Sudoeste 5 Oeste 0 906.2 0.5 88
2018-05-08 08:00:00 10.6 3 Sur 10 Norte 0 906 0.1 92
2018-05-08 07:00:00 10.9 4 Norte 13 Norte 0 905.8 -0.3 90
2018-05-08 06:00:00 11.6 4 Sudoeste 6 Sudoeste 0 905.7 -0.5 88
2018-05-08 05:00:00 12.4 0 Calma 8 Norte 0 905.9 -0.7 86
2018-05-08 04:00:00 12.3 0 Calma 5 Norte 0 906.1 -0.6 85
2018-05-08 03:00:00 12.4 0 Calma 5 Norte 0 906.2 -0.9 85
2018-05-08 02:00:00 12.8 3 Norte 7 Norte 0 906.6 -0.3 85
2018-05-08 01:00:00 13.3 0 Calma 5 Oeste 0 906.7 -0.1 85
2018-05-08 00:00:00 13.9 2 Norte 5 Norte 0 907.1 0.6 80
2018-05-07 23:00:00 14.3 4 Sudeste 12 Norte 0 906.9 0.6 81
2018-05-07 22:00:00 15.3 3 Norte 7 Norte 0 906.8 -0.1 74
2018-05-07 21:00:00 15.6 2 Sudeste 13 Sudeste 0 906.5 0 77
2018-05-07 20:00:00 16.1 0 Calma 13 Sudeste 0 906.3 0.4 67
2018-05-07 19:00:00 15.1 7 Sudeste 20 Sur 0.4 906.9 0.7 77
2018-05-07 18:00:00 17.4 10 Nordeste 33 Nordeste 0 906.5 -0.8 63
2018-05-07 17:00:00 20.9 4 Norte 19 Noroeste 0 905.9 -1.8 42
2018-05-07 16:00:00 22.4 5 Sudoeste 17 Noroeste 0 906.2 -1.9 40
2018-05-07 15:00:00 20.1 5 Noroeste 14 Sur 0 907.3 -1.1 58
2018-05-07 14:00:00 19.9 8 Sur 14 Sur 0 907.7 -0.9 48
2018-05-07 13:00:00 20.4 5 Sudeste 14 Sudoeste 0 908.1 -0.7 45
2018-05-07 12:00:00 18.7 4 Oeste 12 Oeste 0 908.4 -0.3 54
2018-05-07 11:00:00 15.9 5 Norte 13 Norte 0 908.6 -0.1 63
2018-05-07 10:00:00 12.1 5 Noroeste 12 Norte 0 908.8 0.1 79
2018-05-07 09:00:00 10.7 2 Sudeste 10 Norte 0 908.7 0.1 84
2018-05-07 08:00:00 7.8 0 Calma 6 Norte 0 908.7 0.1 94
2018-05-07 07:00:00 7.9 2 Nordeste 8 Nordeste 0 908.7 -0.3 92
2018-05-07 06:00:00 8.7 3 Norte 9 Nordeste 0 908.6 -0.7 91
2018-05-07 05:00:00 9.3 3 Norte 9 Norte 0 908.6 -0.9 91
2018-05-07 04:00:00 10 4 Norte 8 Norte 0 909 -0.5 88
2018-05-07 03:00:00 10.5 2 Sur 6 Sudoeste 0 909.3 -0.5 90
2018-05-07 02:00:00 10.9 0 Calma 8 Norte 0 909.5 -0.2 88
2018-05-07 01:00:00 11.7 0 Calma 6 Norte 0 909.5 0 84
2018-05-07 00:00:00 12.4 2 Nordeste 10 Nordeste 0 909.8 0.8 81
2018-05-06 23:00:00 13.1 0 Calma 7 Oeste 0.2 909.7 1.1 81
2018-05-06 22:00:00 13.4 4 Sudeste 21 Sudeste 0 909.5 1.1 80
2018-05-06 21:00:00 14.8 4 Sudeste 7 Sudeste 0 909 0.8 75
2018-05-06 20:00:00 15.2 6 Sur 27 Sudeste 0 908.6 0.9 70
2018-05-06 19:00:00 16.3 10 Sudeste 26 Sudeste 1 908.4 0.1 67
2018-05-06 18:00:00 16.4 11 Nordeste 33 Nordeste 0.2 908.2 -0.6 65
2018-05-06 17:00:00 19.9 5 Noroeste 24 Norte 0 907.7 -1.5 47
2018-05-06 16:00:00 20 5 Norte 21 Noroeste 0.2 908.3 -1.3 42
2018-05-06 15:00:00 19.1 4 Sur 10 Noroeste 0 908.8 -1.3 45
2018-05-06 14:00:00 18.8 3 Este 9 Este 0 909.2 -1 46
2018-05-06 13:00:00 17.7 4 Nordeste 12 Sudoeste 0 909.6 -1 53
2018-05-06 12:00:00 18.1 8 Sudeste 15 Sur 0 910.1 -0.3 52
2018-05-06 11:00:00 15.9 5 Sur 12 Sudoeste 0 910.2 0 63
2018-05-06 10:00:00 13.8 5 Norte 15 Norte 0 910.6 0.8 71
2018-05-06 09:00:00 10.7 7 Norte 14 Norte 0.4 910.4 0.9 80
2018-05-06 08:00:00 8 0 Calma 6 Norte 0 910.2 0.7 90
2018-05-06 07:00:00 8.3 2 Sudoeste 6 Norte 0 909.8 0.1 91
2018-05-06 06:00:00 9 3 Nordeste 9 Norte 0 909.5 -0.5 90
2018-05-06 05:00:00 9.8 0 Calma 3 Norte 0 909.5 -0.7 87
2018-05-06 04:00:00 10.7 0 Calma 3 Nordeste 0 909.7 -0.7 87
2018-05-06 03:00:00 11 0 Calma 4 Nordeste 0 910 -0.4 85
2018-05-06 02:00:00 11.4 3 Oeste 6 Nordeste 0 910.2 0.3 86
2018-05-06 01:00:00 11.4 3 Sudeste 5 Sudeste 0 910.4 1.1 83
2018-05-06 00:00:00 11.6 4 Sur 15 Sudeste 0 910.4 1.3 82
2018-05-05 23:00:00 12 6 Sudeste 14 Sudeste 0 909.9 1.7 80
2018-05-05 22:00:00 13 5 Sudeste 13 Sur 0.8 909.3 2 83
2018-05-05 21:00:00 14.5 4 Sudeste 14 Sur 0 909.1 2 69
2018-05-05 20:00:00 14.9 4 Sudeste 23 Sudeste 0 908.2 1 73
2018-05-05 19:00:00 16.6 8 Sudeste 15 Este 0.6 907.3 -0.3 65
2018-05-05 18:00:00 19.4 7 Sur 17 Sudoeste 0 907.1 -0.2 47
2018-05-05 17:00:00 18.5 8 Sur 17 Sudeste 0.2 907.2 0.1 53
2018-05-05 16:00:00 15.5 9 Sudeste 27 Nordeste 1.2 907.6 0.1 70
2018-05-05 15:00:00 19.7 8 Sur 14 Sudoeste 0 907.3 -0.4 38
2018-05-05 14:00:00 20.9 8 Oeste 17 Noroeste 0 907.1 -0.9 35
2018-05-05 13:00:00 19.1 5 Oeste 14 Sudoeste 0 907.5 -0.6 39
2018-05-05 12:00:00 18.3 6 Oeste 14 Oeste 0 907.7 -0.2 41
2018-05-05 11:00:00 16.3 3 Sudoeste 7 Sudoeste 0 908 0.4 45
2018-05-05 10:00:00 13 3 Sur 10 Sur 0 908.1 0.8 61
2018-05-05 09:00:00 10.5 2 Norte 6 Norte 0 907.9 0.7 70
2018-05-05 08:00:00 9.5 0 Calma 4 Oeste 0 907.6 0.2 73
2018-05-05 07:00:00 9.4 3 Sudeste 7 Nordeste 0 907.3 0.2 72
2018-05-05 06:00:00 9.9 2 Norte 6 Norte 0 907.2 -0.1 70
2018-05-05 05:00:00 10 3 Sudoeste 5 Oeste 0 907.4 0 70
2018-05-05 04:00:00 10.6 3 Nordeste 6 Sur 0 907.1 -0.2 66
2018-05-05 03:00:00 11.4 4 Sudeste 11 Sur 0 907.3 0 63
2018-05-05 02:00:00 12.6 5 Sudeste 20 Sur 0 907.4 0.5 59
2018-05-05 01:00:00 13.4 9 Sudeste 19 Sur 0 907.3 1.3 54
2018-05-05 00:00:00 14.2 4 Sudeste 9 Sudeste 0 907.3 1.9 51
2018-05-04 23:00:00 15.1 5 Noroeste 15 Oeste 0 906.9 2.1 47
2018-05-04 22:00:00 16.5 6 Noroeste 17 Oeste 0 906 1.3 43
2018-05-04 21:00:00 17.7 6 Oeste 14 Oeste 0 905.4 0.9 38
2018-05-04 20:00:00 18.8 6 Oeste 15 Oeste 0 904.8 0.6 35
2018-05-04 19:00:00 20 5 Sudoeste 17 Noroeste 0 904.7 0.2 32
2018-05-04 18:00:00 19.7 7 Sudoeste 16 Sudoeste 0 904.5 -0.2 33
2018-05-04 17:00:00 20.6 6 Sudoeste 17 Sudoeste 0 904.2 -0.6 32
2018-05-04 16:00:00 19 7 Oeste 16 Noroeste 0 904.5 -0.2 34
2018-05-04 15:00:00 18 6 Sur 13 Nordeste 0 904.7 -0.2 35
2018-05-04 14:00:00 18 6 Sudoeste 19 Sudoeste 0 904.8 -0.3 36
2018-05-04 13:00:00 17.4 5 Sudoeste 13 Sudoeste 0 904.7 -0.4 38
2018-05-04 12:00:00 15.8 4 Norte 15 Norte 0 904.9 0.1 42
2018-05-04 11:00:00 12.7 4 Norte 13 Norte 0 905.1 0.1 50
2018-05-04 10:00:00 8.8 4 Norte 22 Norte 0 905.1 0.5 61
2018-05-04 09:00:00 6.3 7 Norte 18 Norte 0 904.8 0.4 68
2018-05-04 08:00:00 4.1 4 Noroeste 9 Noroeste 0 905 0.1 76
2018-05-04 07:00:00 3.6 3 Noroeste 12 Noroeste 0 904.6 -0.2 76
2018-05-04 06:00:00 4.6 6 Norte 17 Nordeste 0 904.4 -0.6 74
2018-05-04 05:00:00 4.9 5 Oeste 14 Noroeste 0 904.9 -0.3 74
2018-05-04 04:00:00 6 5 Noroeste 15 Norte 0 904.8 -0.8 70
2018-05-04 03:00:00 6.7 4 Noroeste 11 Noroeste 0 905 -0.6 68
2018-05-04 02:00:00 7.7 5 Noroeste 12 Oeste 0 905.2 -0.3 64
2018-05-04 01:00:00 8.7 4 Norte 14 Norte 0 905.6 0.7 60
2018-05-04 00:00:00 9.4 3 Norte 15 Norte 0 905.6 1 57
2018-05-03 23:00:00 10.6 3 Noroeste 15 Nordeste 0 905.5 1.5 49
2018-05-03 22:00:00 11.8 7 Norte 19 Norte 0 904.9 1.1 44
2018-05-03 21:00:00 13.6 4 Norte 24 Noroeste 0 904.6 1 40
2018-05-03 20:00:00 15.3 8 Noroeste 24 Norte 0 904 0.4 32
2018-05-03 19:00:00 17.2 9 Noroeste 30 Noroeste 0 903.8 -0.4 28
2018-05-03 18:00:00 17.8 9 Norte 25 Nordeste 0 903.6 -0.8 27
2018-05-03 17:00:00 18.6 9 Norte 27 Noroeste 0 903.6 -1.3 23
2018-05-03 16:00:00 18.6 9 Noroeste 28 Noroeste 0 904.2 -1.2 28
2018-05-03 15:00:00 17.9 10 Noroeste 27 Noroeste 0 904.4 -1.1 32
2018-05-03 14:00:00 16.2 7 Noroeste 29 Norte 0 904.9 -0.6 37
2018-05-03 13:00:00 15.6 5 Noroeste 27 Norte 0 905.4 0 41
2018-05-03 12:00:00 14.3 8 Norte 31 Norte 0 905.5 0.1 51
2018-05-03 11:00:00 15.1 6 Norte 27 Norte 0 905.5 -0.1 52
2018-05-03 10:00:00 12.5 8 Norte 28 Norte 0 905.4 -0.1 64
2018-05-03 09:00:00 10 6 Norte 19 Norte 0 905.4 -0.3 76
2018-05-03 08:00:00 6.1 4 Norte 18 Norte 0 905.6 -0.6 89
2018-05-03 07:00:00 5.9 3 Oeste 8 Oeste 0 905.5 -0.9 85
2018-05-03 06:00:00 6.6 0 Calma 4 Sudoeste 0 905.7 -0.9 80
2018-05-03 05:00:00 7.2 2 Noroeste 6 Norte 0 906.2 -0.7 75
2018-05-03 04:00:00 7.8 4 Norte 7 Noroeste 0 906.4 -0.5 71
2018-05-03 03:00:00 8 0 Calma 9 Norte 0 906.6 0 67
2018-05-03 02:00:00 8.7 3 Noroeste 8 Noroeste 0 906.9 0.3 60
2018-05-03 01:00:00 9.8 5 Noroeste 16 Noroeste 0 906.9 0.8 49
2018-05-03 00:00:00 10.5 5 Noroeste 19 Noroeste 0 906.6 0.9 46
2018-05-02 23:00:00 11.4 7 Noroeste 22 Oeste 0 906.6 1.1 45
2018-05-02 22:00:00 12.8 5 Noroeste 15 Norte 0 906.1 0.7 47
2018-05-02 21:00:00 13.5 5 Noroeste 21 Noroeste 0 905.7 0.4 45
2018-05-02 20:00:00 14.4 6 Noroeste 26 Norte 0 905.5 0.4 41
2018-05-02 19:00:00 14.8 9 Noroeste 27 Noroeste 0 905.4 0.1 38
2018-05-02 18:00:00 15.1 10 Noroeste 27 Noroeste 0 905.3 -0.4 36
2018-05-02 17:00:00 15.6 10 Noroeste 33 Noroeste 0 905.1 -0.8 34
2018-05-02 16:00:00 16.6 13 Noroeste 32 Noroeste 0 905.3 -1 30
2018-05-02 15:00:00 15.6 13 Noroeste 32 Noroeste 0 905.7 -0.6 33
2018-05-02 14:00:00 15.2 12 Noroeste 30 Oeste 0 905.9 -0.5 32
2018-05-02 13:00:00 13.8 10 Noroeste 30 Oeste 0 906.3 -0.1 40
2018-05-02 12:00:00 14 8 Noroeste 23 Norte 0 906.3 0 40
2018-05-02 11:00:00 11.5 8 Noroeste 21 Oeste 0 906.4 0.4 49
2018-05-02 10:00:00 6.9 3 Oeste 8 Noroeste 0 906.4 0.7 60
2018-05-02 09:00:00 4.1 3 Norte 8 Nordeste 0 906.3 0.6 68
2018-05-02 08:00:00 2.1 3 Oeste 5 Sudoeste 0 906 0.2 76
2018-05-02 07:00:00 1.4 2 Sur 5 Sudoeste 0 905.7 0 78
2018-05-02 06:00:00 1.7 2 Sudeste 19 Norte 0 905.7 -0.2 77
2018-05-02 05:00:00 1.8 10 Norte 18 Norte 0 905.8 -0.2 73
2018-05-02 04:00:00 2.6 2 Sudoeste 13 Norte 0 905.7 -0.2 71
2018-05-02 03:00:00 3.9 0 Calma 8 Nordeste 0 905.9 0 67
2018-05-02 02:00:00 4.9 2 Noroeste 5 Norte 0 906 0.5 63
2018-05-02 01:00:00 5.9 3 Norte 9 Norte 0 905.9 1 58
2018-05-02 00:00:00 7 3 Norte 8 Noroeste 0 905.9 1.4 54
2018-05-01 23:00:00 8.6 2 Norte 11 Nordeste 0 905.5 1.5 46
2018-05-01 22:00:00 10.3 2 Norte 15 Noroeste 0 904.9 1.1 38
2018-05-01 21:00:00 11.7 5 Norte 25 Noroeste 0 904.5 0.8 34
2018-05-01 20:00:00 13.3 7 Noroeste 26 Norte 0 904 0.1 30
2018-05-01 19:00:00 14.8 8 Noroeste 23 Noroeste 0 903.8 -0.4 24
2018-05-01 18:00:00 14.8 6 Norte 20 Noroeste 0 903.7 -0.8 28
2018-05-01 17:00:00 14.6 6 Norte 27 Norte 0 903.9 -0.8 29
2018-05-01 16:00:00 14.8 8 Noroeste 26 Norte 0 904.2 -0.9 32
2018-05-01 15:00:00 13.4 10 Norte 26 Noroeste 0 904.5 -0.8 31
2018-05-01 14:00:00 13 8 Norte 24 Noroeste 0 904.7 -0.7 38
2018-05-01 13:00:00 11.8 8 Norte 23 Norte 0 905.1 -0.3 41
2018-05-01 12:00:00 10.9 5 Norte 15 Norte 0 905.3 -0.2 48
2018-05-01 11:00:00 9 5 Norte 18 Noroeste 0 905.4 0 57
2018-05-01 10:00:00 6 4 Norte 13 Noroeste 0 905.4 0.4 73
2018-05-01 09:00:00 3 2 Noroeste 5 Oeste 0 905.5 0.6 83
2018-05-01 08:00:00 -0.2 2 Sudeste 6 Norte 0 905.4 0.4 96
2018-05-01 07:00:00 0.2 3 Norte 11 Nordeste 0 905 -0.2 99
2018-05-01 06:00:00 -0.2 2 Sudeste 9 Oeste 0 904.9 -0.6 97
2018-05-01 05:00:00 0.9 3 Este 10 Nordeste 0 905 -1 95
2018-05-01 04:00:00 1.5 3 Noroeste 10 Norte 0 905.2 -0.7 94
2018-05-01 03:00:00 1.9 2 Noroeste 9 Norte 0 905.5 -0.3 92
2018-05-01 02:00:00 2.1 3 Norte 10 Norte 0 906 0.1 93
2018-05-01 01:00:00 2.4 4 Norte 10 Norte 0 905.9 0.3 91
2018-05-01 00:00:00 2.8 3 Norte 11 Norte 0 905.8 0.2 89
2018-04-30 23:00:00 3.3 4 Norte 12 Norte 0 905.9 0.9 88
2018-04-30 22:00:00 4 4 Norte 12 Este 0 905.6 0.9 86
2018-04-30 21:00:00 4.6 4 Este 27 Norte 0.8 905.6 1.2 85
2018-04-30 20:00:00 7.4 7 Noroeste 27 Noroeste 0 905 1 66
2018-04-30 19:00:00 8 7 Oeste 31 Oeste 0 904.7 0.1 52
2018-04-30 18:00:00 9.5 13 Oeste 29 Oeste 0 904.4 -0.8 48
2018-04-30 17:00:00 10.9 12 Oeste 24 Oeste 0 904 -1.6 45
2018-04-30 16:00:00 10.8 11 Oeste 20 Sudoeste 0 904.6 -1.2 51
2018-04-30 15:00:00 9 12 Oeste 25 Oeste 0 905.2 -0.8 62
2018-04-30 14:00:00 8.1 10 Sudoeste 27 Noroeste 0 905.6 -0.2 64
2018-04-30 13:00:00 8.6 12 Oeste 21 Noroeste 0 905.8 0 56
2018-04-30 12:00:00 7.8 9 Oeste 25 Oeste 0 906 0.3 59
2018-04-30 11:00:00 7.3 8 Sudoeste 21 Sudoeste 0 905.8 0.3 61
2018-04-30 10:00:00 5.2 3 Sudoeste 9 Sur 0 905.8 0.7 81
2018-04-30 09:00:00 3.2 4 Sur 9 Sur 0 905.7 0.6 87
2018-04-30 08:00:00 2.4 3 Sur 8 Sudeste 0 905.5 0.2 92
2018-04-30 07:00:00 2.5 2 Sudeste 8 Oeste 0 905.1 -0.2 91
2018-04-30 06:00:00 3.2 2 Oeste 9 Oeste 0 905.1 -0.3 88
2018-04-30 05:00:00 3.4 3 Oeste 10 Oeste 0 905.3 -0.6 87
2018-04-30 04:00:00 3.6 4 Oeste 11 Noroeste 0 905.3 -0.8 87
2018-04-30 03:00:00 4.1 6 Noroeste 15 Noroeste 0 905.4 -0.7 86
2018-04-30 02:00:00 4.4 5 Oeste 12 Oeste 0 905.9 -0.1 86
2018-04-30 01:00:00 5 8 Oeste 22 Oeste 0 906.1 1 83
2018-04-30 00:00:00 5.3 9 Noroeste 19 Noroeste 0 906.1 1.5 85
2018-04-29 23:00:00 5.8 5 Oeste 11 Noroeste 0 906 2.5 86
2018-04-29 22:00:00 5.9 6 Noroeste 18 Noroeste 0 905.1 1.8 84
2018-04-29 21:00:00 6.1 12 Noroeste 42 Oeste 1.4 904.6 2 85
2018-04-29 20:00:00 9 12 Oeste 32 Oeste 0 903.5 1.3 62
2018-04-29 19:00:00 8.5 12 Oeste 48 Oeste 0 903.3 1 64
2018-04-29 18:00:00 9.3 16 Oeste 37 Sudoeste 0.2 902.6 0.3 68
2018-04-29 17:00:00 10.6 16 Oeste 43 Oeste 0 902.2 0.3 52
2018-04-29 16:00:00 9.9 18 Oeste 41 Noroeste 0 902.3 0.8 54
2018-04-29 15:00:00 8.2 18 Oeste 49 Noroeste 0 902.3 1.3 68
2018-04-29 14:00:00 8.7 21 Noroeste 46 Noroeste 0 901.9 1.3 67
2018-04-29 13:00:00 6.7 14 Noroeste 50 Oeste 0.8 901.5 1.4 84
2018-04-29 12:00:00 5.7 14 Sudoeste 37 Oeste 0.2 901 1.3 88
2018-04-29 11:00:00 5 14 Oeste 34 Noroeste 0.6 900.6 1.4 90
2018-04-29 10:00:00 4.4 9 Oeste 27 Sudoeste 0.6 900.1 1 91
2018-04-29 09:00:00 4.7 13 Sudoeste 38 Sur 0 899.7 0.5 87
2018-04-29 08:00:00 4.7 10 Sudoeste 24 Sudoeste 0.4 899.2 0.5 91
2018-04-29 07:00:00 4.5 12 Sur 30 Sur 1.4 899.1 0.4 90
2018-04-29 06:00:00 5.3 12 Oeste 33 Oeste 0.6 899.2 -0.2 83
2018-04-29 05:00:00 8.3 8 Sur 14 Sur 0 898.7 -0.9 65
2018-04-29 04:00:00 8.8 5 Oeste 10 Oeste 0 898.7 -1.5 61
2018-04-29 03:00:00 8.9 5 Oeste 14 Oeste 0 899.4 -1 64
2018-04-29 02:00:00 9.8 0 Calma 14 Noroeste 0 899.6 -0.9 56
2018-04-29 01:00:00 10.5 5 Noroeste 14 Norte 0 900.2 -0.1 51
2018-04-29 00:00:00 10.9 5 Noroeste 15 Noroeste 0 900.4 0.9 53
2018-04-28 23:00:00 11.7 5 Noroeste 16 Noroeste 0 900.5 0.5 48
2018-04-28 22:00:00 12.9 6 Noroeste 19 Noroeste 0 900.3 0.2 42
2018-04-28 21:00:00 14.4 10 Noroeste 24 Oeste 0 899.5 -1 45
2018-04-28 20:00:00 16 13 Oeste 36 Oeste 0 900 -0.7 48
2018-04-28 19:00:00 17.3 14 Sudoeste 34 Sudoeste 0 900.1 -1.5 44
2018-04-28 18:00:00 17.8 14 Sudoeste 42 Sudoeste 0 900.5 -2.1 45
2018-04-28 17:00:00 18.7 19 Sudoeste 39 Sudoeste 0 900.7 -2.4 41
2018-04-28 16:00:00 17.5 11 Sudoeste 25 Sudoeste 0 901.6 -2 46
2018-04-28 15:00:00 16.1 11 Sudoeste 32 Sudoeste 0 902.6 -1.2 50
2018-04-28 14:00:00 16.8 13 Sudoeste 28 Sur 0 903.1 -0.4 47
2018-04-28 13:00:00 16.2 15 Sudoeste 27 Sudoeste 0 903.6 -0.2 50
2018-04-28 12:00:00 15.2 14 Sudoeste 27 Sudoeste 0 903.8 0.1 55
2018-04-28 11:00:00 15.1 11 Sur 23 Sur 0 903.5 0 57
2018-04-28 10:00:00 13.1 5 Oeste 12 Noroeste 0 903.8 0.3 65
2018-04-28 09:00:00 11.4 5 Sur 9 Sur 0 903.7 0.2 66
2018-04-28 08:00:00 8.1 0 Calma 4 Oeste 0 903.5 -0.3 76
2018-04-28 07:00:00 7.8 2 Sudoeste 5 Oeste 0 903.5 -0.6 74
2018-04-28 06:00:00 8 2 Oeste 5 Sudeste 0 903.5 -1.1 73
2018-04-28 05:00:00 8.7 3 Norte 8 Norte 0 903.8 -1.3 70
2018-04-28 04:00:00 9.6 0 Calma 6 Oeste 0 904.1 -1.2 67
2018-04-28 03:00:00 10.5 3 Noroeste 6 Oeste 0 904.6 -0.7 62
2018-04-28 02:00:00 11.8 2 Norte 6 Norte 0 905.1 -0.2 57
2018-04-28 01:00:00 13 0 Calma 5 Oeste 0 905.3 0.4 55
2018-04-28 00:00:00 14.7 2 Norte 5 Norte 0 905.3 1 49